Bookmark and Share
Track history (hours):
 

Statia Star

Last reported at 2014-Mar-14 19:10 UTC. Time now 2014-Apr-24 11:10 UTC.
Position N 17°30' W 063°01'.
Warning: this ship's position is 40 days out of date.

Length 32 m; draft 5.8 m.

Type: Other ship. MMSI: 247288500.

NotesDate/timePositionNaut miles runAvg speedWind from/ knotsBaromVisibWave heightAir tempDewpointWater temp
2014-Mar-14 19:10N 17°30' W 063°01'0 0.0
2014-Mar-14 17:17N 17°30' W 063°01'0 0.0
2014-Mar-14 16:33N 17°30' W 063°01'0 0.0
2014-Mar-14 15:33N 17°30' W 063°01'2 1.9
2014-Mar-14 14:33N 17°29' W 062°59'0 0.0
2014-Mar-14 13:33N 17°29' W 062°59'1 1.3
2014-Mar-14 12:33N 17°30' W 063°01'1 1.3
2014-Mar-14 11:33N 17°29' W 062°59'0 0.0
2014-Mar-14 04:05N 17°29' W 062°59'0 0.0
2014-Mar-14 03:04N 17°29' W 062°59'2 3.7
2014-Mar-14 02:33N 17°30' W 063°01'0 0.0
2014-Mar-14 01:33N 17°30' W 063°01'0 0.0
2014-Mar-14 00:33N 17°30' W 063°01'0 0.0
2014-Mar-13 23:33N 17°30' W 063°01'1 0.0
2014-Mar-13 02:32N 17°30' W 063°00'0 0.0
2014-Mar-13 01:33N 17°30' W 063°00'1 1.0
2014-Mar-13 00:33N 17°30' W 063°01'1 1.0
2014-Mar-12 23:33N 17°30' W 063°00'0 0.0
2014-Mar-12 22:33N 17°30' W 063°00'0 0.2
2014-Mar-12 21:33N 17°30' W 063°01'0 0.5
2014-Mar-12 20:33N 17°30' W 063°01'0 0.0
2014-Mar-12 19:33N 17°30' W 063°01'0 0.0
2014-Mar-12 18:33N 17°30' W 063°01'0 0.3
2014-Mar-12 17:29N 17°30' W 063°00'0 0.0
2014-Mar-12 16:33N 17°30' W 063°00'1 0.8
2014-Mar-12 15:33N 17°30' W 063°01'2 2.0
2014-Mar-12 14:33N 17°29' W 062°59'0 0.0
2014-Mar-12 13:33N 17°29' W 062°59'0 0.0
2014-Mar-12 12:33N 17°29' W 062°59'0 0.0
2014-Mar-12 11:33N 17°29' W 062°59'0 0.0
2014-Mar-12 10:33N 17°29' W 062°59'0 0.0
2014-Mar-12 09:19N 17°29' W 062°59'0 0.0
2014-Mar-12 07:19N 17°29' W 062°59'0 0.0
2014-Mar-12 06:20N 17°29' W 062°59'1 1.8
2014-Mar-12 05:33N 17°30' W 063°00'1 0.7
2014-Mar-12 03:33N 17°29' W 062°59'0 0.0
2014-Mar-12 02:33N 17°29' W 062°59'0 0.0
2014-Mar-12 01:31N 17°29' W 062°59'0 0.0
2014-Mar-12 00:33N 17°29' W 062°59'0 0.0
2014-Mar-11 23:33N 17°29' W 062°59'0 0.0
2014-Mar-11 22:33N 17°29' W 062°59'0 0.0
2014-Mar-11 21:33N 17°29' W 062°59'0 0.0
2014-Mar-11 20:33N 17°29' W 062°59'0 0.0
2014-Mar-11 19:33N 17°29' W 062°59'0 0.0
2014-Mar-11 16:25N 17°29' W 062°59'0 0.0
2014-Mar-11 15:28N 17°29' W 062°59'0 0.0
2014-Mar-11 14:33N 17°29' W 062°59'0 0.0
2014-Mar-11 13:33N 17°29' W 062°59'0 0.0
2014-Mar-11 12:33N 17°29' W 062°59'2 1.5
2014-Mar-11 11:33N 17°30' W 063°01'0 0.2
2014-Mar-11 10:33N 17°30' W 063°00'2 1.6
2014-Mar-11 09:33N 17°29' W 062°59'0 0.0
2014-Mar-11 08:33N 17°29' W 062°59'0 0.0
2014-Mar-11 07:07N 17°29' W 062°59'0 0.0
2014-Mar-11 03:17N 17°29' W 062°59'2 2.6
2014-Mar-11 02:33N 17°30' W 063°01'0 0.0
2014-Mar-11 01:31N 17°30' W 063°01'0 0.0
2014-Mar-11 00:33N 17°30' W 063°01'0 0.0
2014-Mar-10 23:32N 17°30' W 063°01'0 0.0
2014-Mar-10 22:33N 17°30' W 063°01'0 0.1
2014-Mar-10 21:33N 17°30' W 063°01'0 0.0
2014-Mar-10 20:30N 17°30' W 063°01'0 0.0
2014-Mar-10 19:33N 17°30' W 063°01'0 0.0
2014-Mar-10 18:32N 17°30' W 063°01'0 0.0
2014-Mar-10 17:33N 17°30' W 063°01'0 0.0
2014-Mar-10 16:32N 17°30' W 063°01'0 0.0
2014-Mar-10 15:33N 17°30' W 063°01'2 0.6
2014-Mar-10 12:17N 17°29' W 062°59'0 0.1
2014-Mar-10 11:33N 17°29' W 062°59'0 0.0
2014-Mar-10 10:33N 17°29' W 062°59'0 0.0
2014-Mar-10 09:32N 17°29' W 062°59'0 0.0
2014-Mar-10 08:33N 17°29' W 062°59'0 0.0
2014-Mar-10 07:33N 17°29' W 062°59'1 0.2
2014-Mar-10 02:29N 17°29' W 063°01'2 1.8
2014-Mar-10 01:33N 17°30' W 063°01'0 0.0
2014-Mar-10 00:32N 17°30' W 063°01'0 0.0
2014-Mar-09 23:33N 17°30' W 063°01'0 0.0
2014-Mar-09 22:32N 17°30' W 063°01'0 0.0
2014-Mar-09 21:33N 17°30' W 063°01'0 0.0
2014-Mar-09 20:33N 17°30' W 063°01'0 0.0
2014-Mar-09 19:33N 17°30' W 063°01'0 0.0
2014-Mar-09 18:31N 17°30' W 063°01'0 0.0
2014-Mar-09 17:32N 17°30' W 063°01'0 0.0
2014-Mar-09 16:33N 17°30' W 063°01'0 0.0
2014-Mar-09 15:33N 17°30' W 063°01'2 1.9
2014-Mar-09 14:33N 17°29' W 062°59'0 0.0
2014-Mar-09 13:32N 17°29' W 062°59'0 0.0
2014-Mar-09 12:31N 17°29' W 062°59'0 0.0
2014-Mar-09 11:33N 17°29' W 062°59'0 0.0
2014-Mar-09 10:22N 17°29' W 062°59'0 0.0
2014-Mar-09 09:33N 17°29' W 062°59'0 0.0
2014-Mar-09 08:33N 17°29' W 062°59'0 0.0
2014-Mar-09 07:33N 17°29' W 062°59'0 0.0
2014-Mar-09 06:33N 17°29' W 062°59'0 0.0
2014-Mar-09 05:33N 17°29' W 062°59'0 0.0
2014-Mar-09 04:17N 17°29' W 062°59'2 1.1
2014-Mar-09 02:29N 17°30' W 063°01'0 0.0
2014-Mar-09 01:33N 17°30' W 063°01'0 0.0
2014-Mar-09 00:31N 17°30' W 063°01'0 0.0
2014-Mar-08 23:33N 17°30' W 063°01'0 0.0
2014-Mar-08 22:34N 17°30' W 063°01'0 0.0
2014-Mar-08 21:33N 17°30' W 063°01'0 0.0
2014-Mar-08 20:53N 17°30' W 063°01'0 0.0
2014-Mar-08 20:33N 17°30' W 063°01'0 0.0
2014-Mar-08 19:27N 17°30' W 063°01'0 0.0
2014-Mar-08 18:33N 17°30' W 063°01'0 0.0
2014-Mar-08 17:33N 17°30' W 063°01'0 0.0
2014-Mar-08 16:33N 17°30' W 063°01'0 0.0
2014-Mar-08 15:32N 17°30' W 063°01'2 1.9
2014-Mar-08 14:33N 17°29' W 062°59'0 0.0
2014-Mar-08 03:25N 17°29' W 062°59'2 2.2
2014-Mar-08 02:33N 17°30' W 063°01'0 0.0
2014-Mar-08 01:33N 17°30' W 063°01'0 0.0
2014-Mar-08 00:32N 17°30' W 063°01'0 0.0
2014-Mar-07 23:33N 17°30' W 063°01'0 0.0
2014-Mar-07 22:31N 17°30' W 063°01'0 0.0
2014-Mar-07 21:33N 17°30' W 063°01'0 0.0
2014-Mar-07 20:33N 17°30' W 063°01'0 0.0
2014-Mar-07 19:33N 17°30' W 063°01'0 0.0
2014-Mar-07 18:33N 17°30' W 063°01'0 0.2
2014-Mar-07 16:33N 17°30' W 063°00'1 0.5
2014-Mar-07 15:33N 17°30' W 063°01'1 0.5
2014-Mar-07 14:30N 17°30' W 063°00'0 0.5
2014-Mar-07 13:33N 17°30' W 063°01'2 0.4
2014-Mar-07 08:26N 17°29' W 062°59'1 1.4
2014-Mar-07 07:33N 17°30' W 063°00'0 0.0
2014-Mar-07 06:33N 17°30' W 063°00'0 0.4
2014-Mar-07 05:33N 17°29' W 063°01'1 1.0
2014-Mar-07 04:18N 17°29' W 062°59'0 0.0
2014-Mar-07 03:32N 17°29' W 062°59'0 0.0
2014-Mar-07 02:22N 17°29' W 062°59'0 0.0
2014-Mar-07 01:31N 17°29' W 062°59'1 0.4
2014-Mar-06 22:21N 17°30' W 063°00'1 1.3
2014-Mar-06 21:28N 17°29' W 062°59'0 0.0
2014-Mar-06 20:28N 17°29' W 062°59'0 0.0
2014-Mar-06 19:33N 17°29' W 062°59'0 0.0
2014-Mar-06 18:33N 17°29' W 062°59'0 0.0
2014-Mar-06 17:32N 17°29' W 062°59'0 0.0
2014-Mar-06 16:33N 17°29' W 062°59'0 0.0
2014-Mar-06 15:27N 17°29' W 062°59'0 0.0
2014-Mar-06 14:32N 17°29' W 062°59'1 0.4
2014-Mar-06 11:24N 17°30' W 063°00'0 0.5
2014-Mar-06 10:33N 17°30' W 063°00'1 0.8
2014-Mar-06 09:31N 17°29' W 063°01'2 1.6
2014-Mar-06 08:33N 17°31' W 063°01'0 0.0
2014-Mar-06 07:33N 17°31' W 063°01'0 0.0
2014-Mar-06 06:33N 17°31' W 063°01'0 0.1
2014-Mar-06 05:33N 17°31' W 063°01'0 0.0
2014-Mar-06 04:33N 17°31' W 063°01'0 0.0
2014-Mar-06 03:33N 17°31' W 063°01'0 0.0
2014-Mar-06 02:33N 17°31' W 063°01'0 0.0
2014-Mar-06 01:33N 17°31' W 063°01'0 0.0
2014-Mar-06 00:33N 17°31' W 063°01'0 0.0
2014-Mar-05 23:33N 17°31' W 063°01'0 0.0
2014-Mar-05 22:33N 17°31' W 063°01'0 0.1
2014-Mar-05 21:33N 17°31' W 063°01'0 0.1
2014-Mar-05 20:33N 17°31' W 063°01'0 0.0
2014-Mar-05 18:33N 17°31' W 063°01'0 0.1
2014-Mar-05 17:33N 17°31' W 063°01'0 0.0
2014-Mar-05 16:31N 17°31' W 063°01'0 0.1
2014-Mar-05 15:33N 17°31' W 063°01'0 0.0
2014-Mar-05 14:33N 17°31' W 063°01'0 0.0
2014-Mar-05 13:33N 17°31' W 063°01'0 0.0
2014-Mar-05 12:33N 17°31' W 063°01'0 0.1
2014-Mar-05 11:33N 17°31' W 063°01'0 0.0
2014-Mar-05 10:33N 17°31' W 063°01'0 0.1
2014-Mar-05 09:32N 17°31' W 063°01'0 0.1
2014-Mar-05 08:33N 17°31' W 063°01'0 0.0
2014-Mar-05 07:33N 17°31' W 063°01'0 0.0
2014-Mar-05 06:33N 17°31' W 063°01'0 0.1
2014-Mar-05 05:33N 17°31' W 063°01'0 0.0
2014-Mar-05 04:33N 17°31' W 063°01'0 0.3
2014-Mar-05 03:32N 17°31' W 063°01'0 0.1
2014-Mar-05 02:33N 17°31' W 063°01'0 0.0
2014-Mar-05 01:33N 17°31' W 063°01'0 0.0
2014-Mar-05 00:33N 17°31' W 063°01'0 0.0
2014-Mar-04 23:33N 17°31' W 063°01'0 0.0
2014-Mar-04 22:33N 17°31' W 063°01'0 0.1
2014-Mar-04 21:33N 17°31' W 063°01'0 0.1
2014-Mar-04 20:33N 17°31' W 063°01'0 0.3
2014-Mar-04 19:33N 17°31' W 063°01'  

Dump ship's entire track history

sailing weather and tide predictions

Statia Star — IIXA2 — position and weather